createdAt,value
2023-03-19T00:00:31.492Z,16.48
2023-03-19T00:02:00.600Z,18.60
2023-03-19T00:03:31.469Z,19.13
2023-03-19T00:04:54.376Z,17.63
2023-03-19T00:06:21.357Z,17.83
2023-03-19T00:07:43.817Z,17.45
2023-03-19T00:09:07.320Z,17.95
2023-03-19T00:10:40.783Z,16.60
2023-03-19T00:12:12.237Z,17.10
2023-03-19T00:13:33.508Z,17.10
2023-03-19T00:15:27.542Z,17.67
2023-03-19T00:17:02.402Z,17.42
2023-03-19T00:18:23.523Z,17.52
2023-03-19T00:20:06.261Z,18.10
2023-03-19T00:21:30.815Z,17.38
2023-03-19T00:22:53.245Z,16.48
2023-03-19T00:24:17.675Z,18.15
2023-03-19T00:25:39.730Z,16.63
2023-03-19T00:27:03.925Z,17.00
2023-03-19T00:28:27.477Z,17.25
2023-03-19T00:29:52.740Z,17.48
2023-03-19T00:31:21.770Z,17.42
2023-03-19T00:32:47.423Z,18.55
2023-03-19T00:34:10.612Z,17.65
2023-03-19T00:35:32.121Z,18.58
2023-03-19T00:38:18.045Z,17.13
2023-03-19T00:39:43.076Z,16.92
2023-03-19T00:41:06.143Z,17.67
2023-03-19T00:42:34.165Z,17.08
2023-03-19T00:43:57.409Z,16.73
2023-03-19T00:45:42.317Z,17.83
2023-03-19T00:47:08.250Z,18.55
2023-03-19T00:48:30.499Z,18.92
2023-03-19T00:49:52.713Z,17.73
2023-03-19T00:51:14.780Z,16.70
2023-03-19T00:52:43.359Z,17.90
2023-03-19T00:54:05.019Z,17.77
2023-03-19T00:55:27.612Z,18.23
2023-03-19T00:56:53.756Z,17.83
2023-03-19T00:58:16.204Z,17.50
2023-03-19T00:59:38.345Z,17.17
2023-03-19T01:00:59.540Z,17.95
2023-03-19T01:02:24.892Z,16.85
2023-03-19T01:03:50.243Z,19.33
2023-03-19T01:05:17.545Z,17.10
2023-03-19T01:06:40.025Z,16.85
2023-03-19T01:08:03.015Z,16.35
2023-03-19T01:09:25.795Z,17.60
2023-03-19T01:10:47.573Z,17.50
2023-03-19T01:12:10.509Z,18.63
2023-03-19T01:13:32.551Z,17.48
2023-03-19T01:15:01.170Z,18.52
2023-03-19T01:16:23.798Z,17.63
2023-03-19T01:17:45.984Z,17.73
2023-03-19T01:19:10.055Z,18.60
2023-03-19T01:20:31.984Z,17.95
2023-03-19T01:21:54.830Z,18.80
2023-03-19T01:23:19.934Z,18.25
2023-03-19T01:24:43.320Z,19.55
2023-03-19T01:26:06.034Z,18.42
2023-03-19T01:27:27.163Z,18.45
2023-03-19T01:28:50.616Z,21.67
2023-03-19T01:30:14.671Z,21.85
2023-03-19T01:31:56.475Z,21.33
2023-03-19T01:33:35.125Z,22.13
2023-03-19T01:35:03.767Z,23.10
2023-03-19T01:36:26.684Z,21.40
2023-03-19T01:37:57.817Z,22.45
2023-03-19T01:39:28.989Z,22.55
2023-03-19T01:40:59.303Z,23.17
2023-03-19T01:42:23.848Z,24.10
2023-03-19T01:44:34.563Z,23.85
2023-03-19T01:46:44.996Z,23.63
2023-03-19T01:48:21.225Z,22.55
2023-03-19T01:49:59.745Z,25.08
2023-03-19T01:51:26.840Z,23.52
2023-03-19T01:52:48.504Z,24.48
2023-03-19T01:54:30.647Z,23.45
2023-03-19T01:56:14.308Z,23.73
2023-03-19T01:57:50.254Z,25.95
2023-03-19T01:59:41.813Z,26.65
2023-03-19T02:01:18.181Z,25.27
2023-03-19T02:02:47.835Z,26.83
2023-03-19T02:04:28.184Z,25.42
2023-03-19T02:05:54.204Z,25.33
2023-03-19T02:07:21.632Z,26.20
2023-03-19T02:08:45.656Z,32.55
2023-03-19T02:10:13.337Z,32.80
2023-03-19T02:11:42.234Z,30.13
2023-03-19T02:13:03.900Z,28.77
2023-03-19T02:14:28.893Z,28.65
2023-03-19T02:15:52.309Z,31.52
2023-03-19T02:17:15.496Z,31.63
2023-03-19T02:18:38.584Z,31.45
2023-03-19T02:20:08.873Z,25.73
2023-03-19T02:21:31.772Z,24.80
2023-03-19T02:23:01.965Z,24.45
2023-03-19T02:24:33.910Z,27.15
2023-03-19T02:26:12.353Z,25.27
2023-03-19T02:27:34.817Z,23.63
2023-03-19T02:28:57.486Z,25.00
2023-03-19T02:30:29.499Z,25.08
2023-03-19T02:31:54.635Z,24.42
2023-03-19T02:33:20.470Z,27.63
2023-03-19T02:34:44.194Z,26.42
2023-03-19T02:36:11.166Z,24.75
2023-03-19T02:37:43.942Z,23.40
2023-03-19T02:39:09.228Z,24.33
2023-03-19T02:40:35.642Z,24.02
2023-03-19T02:41:59.625Z,24.50
2023-03-19T02:43:23.908Z,25.55
2023-03-19T02:44:52.491Z,24.98
2023-03-19T02:46:14.894Z,26.08
2023-03-19T02:47:39.260Z,24.92
2023-03-19T02:49:01.281Z,26.38
2023-03-19T02:51:45.855Z,24.60
2023-03-19T02:53:08.728Z,24.20
2023-03-19T02:54:30.174Z,25.40
2023-03-19T02:55:57.066Z,25.58
2023-03-19T02:57:22.562Z,25.63
2023-03-19T02:58:45.714Z,24.80
2023-03-19T03:00:11.074Z,24.45
2023-03-19T03:01:36.053Z,24.27
2023-03-19T03:03:03.268Z,26.10
2023-03-19T03:04:24.318Z,24.15
2023-03-19T03:05:47.985Z,25.35
2023-03-19T03:07:09.383Z,23.92
2023-03-19T03:08:31.459Z,24.52
2023-03-19T03:09:57.903Z,24.35
2023-03-19T03:11:20.569Z,23.77
2023-03-19T03:12:48.204Z,24.17
2023-03-19T03:14:09.595Z,25.08
2023-03-19T03:15:31.923Z,24.02
2023-03-19T03:16:53.345Z,24.20
2023-03-19T03:19:46.701Z,23.63
2023-03-19T03:21:20.230Z,24.45
2023-03-19T03:22:43.106Z,22.67
2023-03-19T03:24:05.088Z,22.52
2023-03-19T03:25:27.441Z,23.55
2023-03-19T03:26:49.749Z,24.02
2023-03-19T03:28:15.328Z,23.23
2023-03-19T03:29:37.142Z,22.67
2023-03-19T03:31:01.294Z,24.38
2023-03-19T03:32:24.086Z,22.63
2023-03-19T03:33:45.994Z,23.13
2023-03-19T03:35:09.437Z,23.75
2023-03-19T03:36:31.183Z,23.25
2023-03-19T03:37:53.575Z,23.30
2023-03-19T03:39:14.930Z,24.65
2023-03-19T03:40:37.672Z,24.63
2023-03-19T03:41:58.904Z,22.98
2023-03-19T03:43:23.521Z,24.17
2023-03-19T03:44:45.944Z,23.25
2023-03-19T03:46:09.297Z,24.13
2023-03-19T03:47:32.509Z,23.40
2023-03-19T03:48:55.016Z,23.08
2023-03-19T03:50:20.482Z,22.40
2023-03-19T03:51:44.387Z,24.63
2023-03-19T03:53:06.899Z,24.90
2023-03-19T03:54:29.217Z,24.80
2023-03-19T03:55:53.736Z,25.95
2023-03-19T03:57:19.435Z,24.80
2023-03-19T03:58:42.493Z,25.75
2023-03-19T04:00:06.058Z,27.08
2023-03-19T04:01:35.751Z,24.90
2023-03-19T04:02:59.425Z,27.13
2023-03-19T04:04:21.028Z,26.20
2023-03-19T04:05:44.661Z,26.50
2023-03-19T04:07:10.422Z,25.60
2023-03-19T04:08:43.273Z,24.95
2023-03-19T04:10:07.770Z,27.48
2023-03-19T04:11:29.773Z,27.42
2023-03-19T04:12:52.317Z,25.70
2023-03-19T04:14:14.709Z,27.58
2023-03-19T04:15:39.614Z,24.42
2023-03-19T04:17:02.363Z,27.02
2023-03-19T04:18:25.085Z,27.65
2023-03-19T04:19:47.841Z,27.58
2023-03-19T04:21:12.482Z,24.92
2023-03-19T04:22:35.059Z,25.75
2023-03-19T04:23:56.695Z,26.95
2023-03-19T04:25:19.249Z,26.10
2023-03-19T04:26:41.507Z,26.05
2023-03-19T04:28:13.579Z,25.17
2023-03-19T04:29:37.434Z,27.73
2023-03-19T04:31:02.894Z,28.63
2023-03-19T04:32:27.331Z,26.20
2023-03-19T04:33:50.865Z,26.52
2023-03-19T04:35:15.789Z,25.67
2023-03-19T04:36:38.694Z,26.13
2023-03-19T04:38:01.788Z,26.77
2023-03-19T04:39:23.381Z,27.35
2023-03-19T04:40:49.550Z,26.70
2023-03-19T04:42:12.707Z,26.20
2023-03-19T04:43:46.732Z,25.60
2023-03-19T04:45:11.305Z,26.55
2023-03-19T04:46:34.670Z,26.90
2023-03-19T04:47:58.329Z,25.95
2023-03-19T04:49:21.415Z,27.45
2023-03-19T04:50:45.858Z,25.63
2023-03-19T04:52:07.155Z,25.55
2023-03-19T04:53:29.263Z,27.15
2023-03-19T04:54:50.697Z,25.35
2023-03-19T04:56:16.319Z,25.80
2023-03-19T04:57:38.589Z,26.17
2023-03-19T04:59:01.610Z,26.38
2023-03-19T05:00:24.730Z,25.90
2023-03-19T05:01:49.945Z,24.77
2023-03-19T05:03:16.809Z,24.90
2023-03-19T05:04:40.300Z,25.90
2023-03-19T05:06:09.298Z,26.55
2023-03-19T05:07:31.106Z,25.23
2023-03-19T05:08:56.116Z,24.92
2023-03-19T05:10:20.718Z,24.40
2023-03-19T05:11:48.384Z,25.58
2023-03-19T05:13:18.425Z,27.00
2023-03-19T05:14:45.740Z,26.13
2023-03-19T05:16:29.775Z,27.38
2023-03-19T05:17:52.514Z,24.92
2023-03-19T05:19:16.706Z,26.10
2023-03-19T05:20:39.016Z,25.65
2023-03-19T05:22:06.585Z,25.80
2023-03-19T05:23:29.478Z,27.50
2023-03-19T05:25:00.059Z,26.02
2023-03-19T05:26:22.774Z,26.05
2023-03-19T05:28:04.061Z,26.17
2023-03-19T05:29:27.269Z,26.85
2023-03-19T05:31:14.077Z,25.50
2023-03-19T05:32:43.254Z,25.38
2023-03-19T05:34:13.637Z,26.08
2023-03-19T05:35:42.923Z,24.90
2023-03-19T05:37:22.151Z,25.30
2023-03-19T05:38:49.637Z,25.23
2023-03-19T05:40:19.745Z,25.35
2023-03-19T05:41:43.858Z,25.40
2023-03-19T05:43:06.981Z,24.10
2023-03-19T05:44:50.127Z,25.55
2023-03-19T05:46:25.353Z,26.50
2023-03-19T05:47:50.585Z,24.85
2023-03-19T05:49:14.117Z,25.75
2023-03-19T05:50:37.261Z,25.83
2023-03-19T05:52:09.335Z,25.65
2023-03-19T05:53:35.320Z,24.00
2023-03-19T05:55:17.865Z,24.98
2023-03-19T05:56:44.449Z,23.98
2023-03-19T05:58:39.266Z,23.92
2023-03-19T06:00:02.345Z,22.98
2023-03-19T06:01:36.264Z,24.23
2023-03-19T06:03:07.379Z,23.75
2023-03-19T06:04:40.422Z,23.67
2023-03-19T06:06:11.416Z,24.25
2023-03-19T06:07:59.121Z,23.10
2023-03-19T06:09:50.591Z,22.98
2023-03-19T06:11:15.956Z,22.35
2023-03-19T06:12:44.964Z,23.17
2023-03-19T06:14:47.411Z,24.42
2023-03-19T06:16:32.928Z,25.10
2023-03-19T06:18:13.277Z,25.50
2023-03-19T06:19:42.419Z,24.17
2023-03-19T06:21:05.008Z,25.92
2023-03-19T06:22:27.465Z,24.13
2023-03-19T06:23:52.560Z,25.10
2023-03-19T06:25:22.096Z,25.75
2023-03-19T06:26:47.189Z,25.65
2023-03-19T06:28:10.540Z,26.38
2023-03-19T06:29:37.747Z,25.55
2023-03-19T06:31:22.629Z,25.58
2023-03-19T06:33:05.269Z,26.83
2023-03-19T06:34:30.488Z,25.90
2023-03-19T06:36:09.164Z,26.05
2023-03-19T06:37:39.559Z,26.65
2023-03-19T06:39:03.381Z,24.80
2023-03-19T06:40:26.750Z,25.25
2023-03-19T06:41:47.739Z,26.10
2023-03-19T06:43:14.311Z,26.98
2023-03-19T06:44:36.673Z,25.63
2023-03-19T06:45:58.774Z,26.27
2023-03-19T06:47:21.306Z,25.55
2023-03-19T06:48:43.791Z,28.58
2023-03-19T06:50:08.684Z,26.17
2023-03-19T06:51:35.249Z,27.85
2023-03-19T06:52:58.662Z,25.67
2023-03-19T06:54:20.708Z,25.50
2023-03-19T06:55:44.712Z,24.63
2023-03-19T06:57:07.099Z,26.48
2023-03-19T06:58:29.468Z,29.25
2023-03-19T06:59:51.945Z,28.02
2023-03-19T07:01:14.463Z,28.17
2023-03-19T07:02:37.083Z,27.13
2023-03-19T07:03:57.981Z,27.27
2023-03-19T07:05:20.382Z,28.17
2023-03-19T07:06:44.348Z,36.10
2023-03-19T07:08:12.110Z,49.50
2023-03-19T07:09:34.249Z,35.60
2023-03-19T07:10:58.523Z,41.53
2023-03-19T07:12:20.986Z,34.28
2023-03-19T07:13:43.603Z,31.40
2023-03-19T07:15:06.759Z,34.65
2023-03-19T07:16:27.716Z,32.30
2023-03-19T07:17:50.370Z,31.48
2023-03-19T07:19:12.667Z,31.25
2023-03-19T07:20:34.128Z,33.08
2023-03-19T07:21:58.353Z,33.50
2023-03-19T07:23:20.711Z,30.63
2023-03-19T07:24:42.870Z,30.05
2023-03-19T07:26:05.155Z,32.45
2023-03-19T07:27:27.085Z,28.15
2023-03-19T07:30:12.409Z,24.38
2023-03-19T07:31:34.845Z,25.88
2023-03-19T07:32:57.142Z,24.50
2023-03-19T07:35:39.761Z,21.58
2023-03-19T07:37:03.134Z,33.40
2023-03-19T07:38:25.130Z,29.17
2023-03-19T07:41:08.359Z,19.40
2023-03-19T07:42:30.278Z,21.33
2023-03-19T07:43:52.294Z,21.33
2023-03-19T07:45:14.497Z,21.25
2023-03-19T07:46:36.453Z,19.55
2023-03-19T07:49:20.669Z,19.25
2023-03-19T07:50:43.018Z,21.15
2023-03-19T07:52:06.882Z,18.60
2023-03-19T07:53:28.924Z,18.63
2023-03-19T07:54:52.490Z,19.60
2023-03-19T07:56:14.603Z,18.42
2023-03-19T07:57:36.861Z,17.50
2023-03-19T07:58:59.787Z,18.60
2023-03-19T08:00:25.415Z,21.23
2023-03-19T08:01:47.734Z,19.02
2023-03-19T08:03:10.263Z,19.30
2023-03-19T08:04:32.230Z,18.15
2023-03-19T08:05:54.062Z,17.98
2023-03-19T08:08:39.533Z,18.15
2023-03-19T08:11:24.304Z,18.10
2023-03-19T08:12:46.762Z,18.05
2023-03-19T08:14:09.203Z,19.08
2023-03-19T08:15:31.734Z,17.45
2023-03-19T08:16:53.932Z,18.40
2023-03-19T08:18:16.961Z,19.40
2023-03-19T08:19:39.322Z,17.85
2023-03-19T08:21:01.700Z,17.88
2023-03-19T08:22:25.465Z,17.60
2023-03-19T08:23:47.924Z,18.33
2023-03-19T08:25:10.744Z,18.13
2023-03-19T08:26:33.714Z,17.10
2023-03-19T08:27:56.403Z,17.67
2023-03-19T08:29:19.275Z,17.95
2023-03-19T08:30:41.570Z,18.48
2023-03-19T08:32:03.157Z,16.83
2023-03-19T08:33:25.752Z,17.50
2023-03-19T08:34:49.699Z,18.30
2023-03-19T08:36:14.277Z,18.65
2023-03-19T08:37:38.018Z,18.23
2023-03-19T08:39:00.691Z,18.27
2023-03-19T08:40:22.421Z,18.08
2023-03-19T08:41:44.768Z,16.42
2023-03-19T08:43:07.814Z,17.33
2023-03-19T08:44:30.126Z,18.20
2023-03-19T08:45:52.089Z,16.75
2023-03-19T08:47:14.726Z,16.98
2023-03-19T08:48:50.986Z,16.02
2023-03-19T08:50:47.970Z,16.70
2023-03-19T08:52:15.366Z,15.55
2023-03-19T08:53:40.130Z,16.70
2023-03-19T08:55:02.540Z,15.07
2023-03-19T08:56:25.433Z,14.98
2023-03-19T08:57:47.451Z,13.30
2023-03-19T08:59:10.038Z,14.70
2023-03-19T09:00:32.197Z,14.38
2023-03-19T09:01:55.480Z,15.27
2023-03-19T09:03:19.219Z,15.30
2023-03-19T09:04:42.507Z,14.77
2023-03-19T09:06:07.113Z,14.57
2023-03-19T09:07:29.241Z,13.60
2023-03-19T09:08:52.188Z,14.30
2023-03-19T09:10:14.430Z,12.52
2023-03-19T09:11:36.573Z,13.25
2023-03-19T09:12:58.918Z,13.13
2023-03-19T09:14:23.206Z,12.88
2023-03-19T09:15:45.298Z,12.82
2023-03-19T09:17:08.253Z,12.85
2023-03-19T09:18:31.205Z,12.75
2023-03-19T09:19:53.305Z,13.02
2023-03-19T09:21:15.400Z,12.82
2023-03-19T09:22:37.675Z,12.80
2023-03-19T09:24:01.352Z,13.73
2023-03-19T09:25:23.836Z,13.52
2023-03-19T09:26:46.212Z,14.52
2023-03-19T09:28:08.741Z,13.27
2023-03-19T09:29:31.550Z,12.55
2023-03-19T09:30:54.215Z,12.90
2023-03-19T09:32:16.678Z,12.18
2023-03-19T09:33:38.840Z,11.55
2023-03-19T09:35:00.866Z,11.70
2023-03-19T09:36:23.322Z,12.55
2023-03-19T09:37:45.942Z,11.85
2023-03-19T09:39:10.070Z,10.80
2023-03-19T09:40:38.310Z,11.35
2023-03-19T09:42:17.133Z,11.60
2023-03-19T09:43:58.285Z,11.65
2023-03-19T09:45:21.475Z,10.82
2023-03-19T09:46:48.469Z,11.45
2023-03-19T09:48:18.293Z,11.73
2023-03-19T09:49:45.012Z,15.32
2023-03-19T09:51:10.695Z,12.45
2023-03-19T09:52:43.354Z,11.57
2023-03-19T09:54:20.356Z,10.80
2023-03-19T09:55:47.020Z,13.07
2023-03-19T09:57:13.213Z,13.18
2023-03-19T09:58:38.577Z,14.98
2023-03-19T10:00:07.121Z,15.48
2023-03-19T10:01:35.801Z,12.45
2023-03-19T10:03:08.288Z,11.60
2023-03-19T10:04:43.885Z,10.75
2023-03-19T10:06:20.248Z,10.35
2023-03-19T10:07:56.991Z,11.30
2023-03-19T10:09:46.131Z,11.80
2023-03-19T10:11:29.939Z,11.35
2023-03-19T10:13:01.464Z,11.38
2023-03-19T10:14:49.490Z,10.27
2023-03-19T10:16:26.803Z,9.95
2023-03-19T10:17:58.821Z,10.45
2023-03-19T10:19:26.615Z,10.52
2023-03-19T10:20:56.844Z,9.65
2023-03-19T10:22:23.398Z,9.82
2023-03-19T10:23:50.203Z,10.43
2023-03-19T10:25:20.340Z,9.13
2023-03-19T10:26:43.565Z,8.82
2023-03-19T10:28:16.450Z,9.93
2023-03-19T10:29:39.340Z,10.27
2023-03-19T10:31:15.272Z,10.55
2023-03-19T10:32:42.521Z,10.98
2023-03-19T10:34:21.270Z,9.93
2023-03-19T10:35:46.400Z,11.05
2023-03-19T10:37:16.635Z,9.93
2023-03-19T10:38:42.612Z,10.45
2023-03-19T10:40:12.853Z,10.10
2023-03-19T10:41:51.363Z,9.65
2023-03-19T10:43:19.923Z,9.82
2023-03-19T10:44:50.262Z,10.63
2023-03-19T10:46:15.973Z,9.20
2023-03-19T10:47:41.801Z,10.40
2023-03-19T10:49:04.331Z,10.48
2023-03-19T10:50:31.766Z,10.80
2023-03-19T10:51:54.273Z,9.82
2023-03-19T10:53:32.364Z,10.45
2023-03-19T10:54:58.060Z,11.00
2023-03-19T10:56:23.274Z,10.43
2023-03-19T10:57:50.743Z,9.82
2023-03-19T10:59:28.000Z,9.75
2023-03-19T11:00:58.091Z,9.20
2023-03-19T11:02:23.401Z,9.80
2023-03-19T11:03:53.328Z,9.27
2023-03-19T11:05:26.077Z,8.75
2023-03-19T11:06:51.237Z,8.98
2023-03-19T11:08:35.010Z,9.55
2023-03-19T11:09:58.128Z,10.48
2023-03-19T11:11:28.280Z,9.82
2023-03-19T11:12:56.563Z,9.50
2023-03-19T11:14:20.979Z,9.18
2023-03-19T11:15:43.547Z,9.40
2023-03-19T11:17:08.951Z,9.13
2023-03-19T11:18:37.505Z,9.48
2023-03-19T11:20:01.122Z,10.05
2023-03-19T11:21:26.217Z,9.25
2023-03-19T11:22:51.714Z,10.40
2023-03-19T11:24:14.690Z,10.32
2023-03-19T11:25:40.839Z,9.93
2023-03-19T11:27:03.704Z,10.20
2023-03-19T11:28:33.782Z,11.75
2023-03-19T11:29:55.158Z,11.80
2023-03-19T11:31:25.622Z,11.65
2023-03-19T11:33:23.998Z,10.88
2023-03-19T11:34:54.095Z,9.35
2023-03-19T11:36:24.269Z,9.80
2023-03-19T11:37:55.998Z,9.38
2023-03-19T11:39:28.661Z,9.82
2023-03-19T11:41:02.254Z,9.75
2023-03-19T11:42:47.878Z,10.52
2023-03-19T11:44:18.156Z,11.68
2023-03-19T11:45:50.840Z,10.50
2023-03-19T11:47:27.099Z,9.82
2023-03-19T11:49:17.430Z,12.30
2023-03-19T11:50:48.295Z,10.55
2023-03-19T11:52:21.341Z,10.60
2023-03-19T11:54:00.486Z,11.27
2023-03-19T11:55:33.007Z,12.57
2023-03-19T11:57:02.395Z,13.27
2023-03-19T11:58:59.453Z,12.27
2023-03-19T12:00:33.339Z,12.15
2023-03-19T12:02:30.742Z,12.10
2023-03-19T12:04:11.221Z,11.88
2023-03-19T12:05:37.443Z,11.43
2023-03-19T12:07:08.683Z,13.52
2023-03-19T12:08:38.943Z,11.85
2023-03-19T12:10:18.702Z,12.32
2023-03-19T12:11:54.269Z,19.08
2023-03-19T12:13:32.282Z,19.08
2023-03-19T12:15:06.681Z,20.42
2023-03-19T12:16:46.562Z,22.23
2023-03-19T12:18:19.398Z,19.58
2023-03-19T12:20:12.870Z,16.13
2023-03-19T12:21:47.713Z,19.83
2023-03-19T12:23:21.707Z,22.75
2023-03-19T12:25:05.245Z,21.33
2023-03-19T12:26:33.455Z,15.18
2023-03-19T12:28:01.877Z,14.20
2023-03-19T12:29:32.033Z,12.75
2023-03-19T12:31:08.394Z,17.80
2023-03-19T12:32:54.210Z,19.33
2023-03-19T12:34:26.155Z,17.08
2023-03-19T12:35:51.910Z,15.15
2023-03-19T12:37:21.685Z,11.88
2023-03-19T12:38:52.406Z,14.02
2023-03-19T12:40:27.345Z,15.43
2023-03-19T12:42:06.669Z,13.45
2023-03-19T12:43:35.121Z,14.10
2023-03-19T12:45:00.244Z,14.38
2023-03-19T12:46:28.709Z,14.07
2023-03-19T12:47:58.621Z,17.00
2023-03-19T12:49:26.556Z,12.75
2023-03-19T12:50:54.927Z,14.93
2023-03-19T12:52:23.992Z,15.35
2023-03-19T12:53:55.517Z,13.90
2023-03-19T12:55:22.094Z,13.60
2023-03-19T12:56:51.094Z,13.23
2023-03-19T12:58:22.255Z,13.52
2023-03-19T12:59:53.243Z,12.88
2023-03-19T13:01:22.408Z,21.92
2023-03-19T13:02:49.254Z,18.60
2023-03-19T13:04:19.424Z,24.77
2023-03-19T13:05:46.090Z,12.48
2023-03-19T13:07:15.085Z,12.38
2023-03-19T13:08:45.116Z,12.50
2023-03-19T13:10:11.029Z,13.73
2023-03-19T13:11:42.576Z,13.15
2023-03-19T13:13:14.373Z,12.50
2023-03-19T13:14:48.490Z,12.43
2023-03-19T13:16:23.131Z,12.60
2023-03-19T13:17:58.495Z,11.25
2023-03-19T13:19:30.673Z,10.32
2023-03-19T13:21:05.894Z,10.85
2023-03-19T13:22:32.217Z,11.07
2023-03-19T13:24:06.444Z,13.07
2023-03-19T13:25:34.767Z,11.45
2023-03-19T13:27:01.110Z,11.63
2023-03-19T13:28:29.618Z,11.43
2023-03-19T13:30:07.839Z,10.60
2023-03-19T13:31:35.247Z,10.07
2023-03-19T13:33:05.180Z,10.40
2023-03-19T13:34:30.450Z,9.85
2023-03-19T13:35:53.810Z,9.68
2023-03-19T13:37:19.812Z,10.30
2023-03-19T13:38:46.334Z,10.73
2023-03-19T13:40:42.720Z,9.88
2023-03-19T13:42:20.193Z,10.80
2023-03-19T13:43:44.446Z,9.52
2023-03-19T13:45:51.403Z,10.70
2023-03-19T13:47:39.906Z,10.20
2023-03-19T13:49:33.756Z,9.75
2023-03-19T13:51:01.969Z,10.32
2023-03-19T13:52:49.754Z,10.10
2023-03-19T13:54:18.869Z,10.20
2023-03-19T13:55:52.516Z,10.23
2023-03-19T13:57:37.206Z,11.32
2023-03-19T13:59:25.393Z,10.45
2023-03-19T14:01:01.470Z,10.98
2023-03-19T14:02:54.544Z,9.70
2023-03-19T14:04:23.884Z,11.05
2023-03-19T14:05:49.806Z,11.18
2023-03-19T14:07:19.226Z,11.02
2023-03-19T14:08:47.828Z,10.15
2023-03-19T14:10:18.759Z,10.25
2023-03-19T14:11:41.695Z,10.60
2023-03-19T14:13:08.712Z,10.25
2023-03-19T14:14:32.171Z,9.90
2023-03-19T14:16:07.261Z,10.38
2023-03-19T14:17:35.158Z,10.00
2023-03-19T14:19:01.248Z,10.90
2023-03-19T14:20:39.323Z,10.85
2023-03-19T14:22:20.166Z,10.05
2023-03-19T14:23:46.809Z,9.90
2023-03-19T14:25:18.756Z,10.50
2023-03-19T14:26:44.815Z,11.32
2023-03-19T14:28:10.869Z,10.75
2023-03-19T14:29:36.506Z,9.88
2023-03-19T14:31:00.538Z,10.48
2023-03-19T14:32:31.579Z,9.65
2023-03-19T14:33:59.840Z,10.88
2023-03-19T14:35:26.524Z,10.20
2023-03-19T14:36:58.028Z,10.60
2023-03-19T14:38:33.452Z,9.63
2023-03-19T14:40:04.628Z,10.77
2023-03-19T14:41:32.486Z,11.13
2023-03-19T14:43:06.715Z,11.38
2023-03-19T14:44:46.028Z,10.32
2023-03-19T14:46:23.455Z,9.40
2023-03-19T14:48:08.415Z,11.57
2023-03-19T14:49:54.150Z,9.82
2023-03-19T14:51:39.836Z,9.35
2023-03-19T14:53:07.166Z,9.55
2023-03-19T14:54:37.446Z,9.65
2023-03-19T14:56:11.750Z,9.75
2023-03-19T14:57:37.420Z,9.75
2023-03-19T14:59:03.925Z,9.68
2023-03-19T15:00:26.446Z,9.82
2023-03-19T15:01:53.024Z,10.38
2023-03-19T15:03:23.116Z,9.30
2023-03-19T15:04:47.376Z,8.75
2023-03-19T15:06:13.756Z,8.80
2023-03-19T15:07:41.138Z,8.68
2023-03-19T15:09:11.495Z,9.23
2023-03-19T15:10:49.512Z,10.18
2023-03-19T15:12:31.430Z,9.30
2023-03-19T15:14:14.977Z,9.75
2023-03-19T15:15:44.546Z,9.93
2023-03-19T15:17:15.678Z,9.23
2023-03-19T15:18:39.291Z,9.77
2023-03-19T15:20:03.718Z,9.00
2023-03-19T15:21:29.755Z,9.77
2023-03-19T15:22:56.478Z,9.32
2023-03-19T15:24:19.409Z,9.70
2023-03-19T15:25:51.907Z,9.65
2023-03-19T15:27:24.521Z,9.75
2023-03-19T15:28:49.695Z,9.57
2023-03-19T15:30:22.267Z,9.30
2023-03-19T15:31:52.356Z,9.43
2023-03-19T15:33:37.307Z,9.40
2023-03-19T15:35:06.354Z,9.88
2023-03-19T15:36:37.940Z,9.68
2023-03-19T15:38:03.863Z,9.32
2023-03-19T15:39:48.763Z,9.70
2023-03-19T15:41:20.877Z,9.55
2023-03-19T15:42:45.055Z,9.88
2023-03-19T15:44:20.697Z,10.20
2023-03-19T15:45:47.637Z,9.57
2023-03-19T15:47:16.974Z,10.13
2023-03-19T15:48:45.968Z,9.50
2023-03-19T15:50:14.091Z,9.23
2023-03-19T15:51:37.323Z,9.90
2023-03-19T15:53:02.294Z,11.38
2023-03-19T15:54:25.466Z,10.40
2023-03-19T15:55:51.479Z,11.50
2023-03-19T15:57:18.385Z,11.70
2023-03-19T15:58:44.464Z,11.07
2023-03-19T16:00:11.674Z,11.77
2023-03-19T16:01:37.794Z,11.07
2023-03-19T16:03:00.187Z,12.05
2023-03-19T16:04:30.136Z,12.57
2023-03-19T16:06:00.116Z,12.98
2023-03-19T16:07:28.209Z,13.32
2023-03-19T16:08:53.631Z,12.32
2023-03-19T16:10:38.405Z,11.95
2023-03-19T16:12:01.929Z,11.85
2023-03-19T16:13:37.740Z,12.27
2023-03-19T16:15:00.412Z,12.75
2023-03-19T16:16:25.114Z,12.02
2023-03-19T16:17:49.424Z,11.63
2023-03-19T16:19:29.848Z,12.77
2023-03-19T16:21:02.120Z,13.07
2023-03-19T16:22:26.888Z,13.65
2023-03-19T16:23:56.175Z,12.18
2023-03-19T16:25:20.240Z,13.85
2023-03-19T16:26:44.757Z,12.45
2023-03-19T16:28:08.003Z,13.23
2023-03-19T16:29:35.849Z,13.55
2023-03-19T16:30:58.656Z,13.52
2023-03-19T16:32:23.586Z,13.52
2023-03-19T16:33:46.596Z,12.65
2023-03-19T16:35:14.934Z,14.13
2023-03-19T16:36:38.238Z,13.70
2023-03-19T16:38:13.778Z,13.85
2023-03-19T16:39:37.823Z,13.15
2023-03-19T16:41:18.529Z,13.05
2023-03-19T16:42:42.084Z,13.70
2023-03-19T16:44:17.058Z,14.18
2023-03-19T16:45:42.647Z,14.73
2023-03-19T16:47:12.234Z,14.77
2023-03-19T16:48:34.413Z,15.68
2023-03-19T16:49:56.854Z,14.68
2023-03-19T16:51:21.652Z,15.15
2023-03-19T16:52:44.300Z,15.30
2023-03-19T16:54:06.537Z,15.00
2023-03-19T16:55:32.271Z,16.00
2023-03-19T16:56:55.504Z,14.73
2023-03-19T16:58:20.463Z,14.35
2023-03-19T16:59:43.173Z,15.10
2023-03-19T17:01:16.142Z,15.15
2023-03-19T17:02:38.457Z,14.77
2023-03-19T17:04:01.799Z,14.70
2023-03-19T17:05:25.653Z,15.45
2023-03-19T17:06:59.402Z,16.90
2023-03-19T17:08:26.378Z,18.00
2023-03-19T17:09:48.362Z,17.27
2023-03-19T17:11:19.820Z,18.20
2023-03-19T17:12:46.603Z,17.42
2023-03-19T17:14:14.668Z,17.75
2023-03-19T17:15:40.372Z,16.50
2023-03-19T17:17:04.898Z,16.95
2023-03-19T17:18:29.634Z,17.92
2023-03-19T17:19:52.094Z,16.30
2023-03-19T17:21:17.486Z,16.88
2023-03-19T17:22:39.881Z,17.33
2023-03-19T17:25:28.514Z,17.80
2023-03-19T17:26:50.792Z,18.27
2023-03-19T17:28:13.120Z,18.02
2023-03-19T17:29:39.936Z,18.15
2023-03-19T17:31:04.177Z,19.20
2023-03-19T17:32:29.113Z,18.85
2023-03-19T17:33:57.425Z,18.60
2023-03-19T17:35:23.755Z,17.90
2023-03-19T17:36:52.661Z,18.13
2023-03-19T17:38:20.198Z,21.02
2023-03-19T17:39:43.502Z,17.65
2023-03-19T17:41:14.276Z,17.90
2023-03-19T17:42:37.583Z,17.92
2023-03-19T17:44:01.534Z,17.80
2023-03-19T17:45:27.929Z,17.52
2023-03-19T17:46:53.136Z,17.95
2023-03-19T17:48:22.704Z,17.55
2023-03-19T17:49:45.870Z,18.13
2023-03-19T17:51:08.465Z,20.15
2023-03-19T17:52:31.060Z,18.70
2023-03-19T17:53:55.593Z,22.17
2023-03-19T17:55:19.737Z,20.38
2023-03-19T17:56:44.455Z,20.27
2023-03-19T17:58:06.979Z,20.63
2023-03-19T17:59:29.022Z,21.30
2023-03-19T18:00:52.883Z,20.75
2023-03-19T18:02:33.457Z,24.83
2023-03-19T18:03:59.448Z,22.55
2023-03-19T18:05:24.012Z,22.67
2023-03-19T18:06:49.928Z,25.27
2023-03-19T18:08:15.719Z,29.77
2023-03-19T18:09:38.171Z,28.27
2023-03-19T18:11:00.012Z,26.13
2023-03-19T18:13:44.664Z,26.15
2023-03-19T18:15:08.107Z,26.63
2023-03-19T18:16:33.277Z,27.52
2023-03-19T18:17:56.994Z,29.58
2023-03-19T18:19:27.408Z,29.08
2023-03-19T18:20:50.128Z,31.15
2023-03-19T18:22:14.426Z,29.48
2023-03-19T18:23:36.736Z,25.13
2023-03-19T18:24:59.393Z,22.98
2023-03-19T18:26:24.968Z,24.67
2023-03-19T18:27:49.234Z,25.30
2023-03-19T18:29:11.774Z,25.50
2023-03-19T18:30:53.634Z,26.60
2023-03-19T18:32:24.982Z,26.57
2023-03-19T18:33:53.891Z,24.75
2023-03-19T18:35:20.078Z,24.30
2023-03-19T18:36:43.829Z,24.38
2023-03-19T18:38:13.669Z,25.08
2023-03-19T18:39:39.240Z,28.48
2023-03-19T18:41:15.860Z,25.30
2023-03-19T18:42:40.131Z,26.33
2023-03-19T18:44:05.109Z,26.60
2023-03-19T18:45:38.517Z,25.42
2023-03-19T18:47:17.686Z,26.92
2023-03-19T18:48:48.598Z,27.73
2023-03-19T18:50:23.269Z,26.95
2023-03-19T18:52:01.138Z,27.33
2023-03-19T18:53:36.421Z,25.27
2023-03-19T18:54:58.853Z,26.02
2023-03-19T18:56:24.981Z,26.73
2023-03-19T18:57:56.531Z,28.42
2023-03-19T18:59:26.190Z,27.23
2023-03-19T19:00:58.306Z,26.85
2023-03-19T19:02:32.692Z,25.70
2023-03-19T19:03:55.763Z,27.77
2023-03-19T19:05:35.407Z,27.05
2023-03-19T19:06:57.755Z,27.40
2023-03-19T19:08:32.359Z,26.58
2023-03-19T19:09:58.224Z,27.02
2023-03-19T19:11:34.186Z,27.00
2023-03-19T19:13:00.716Z,28.00